Time;durP1;ratioP1;P1;durP2;ratioP2;P2;SDS_P1;SDS_P2;PMS_P1;PMS_P2;Temp;Humidity;BMP_temperature;BMP_pressure;BME280_temperature;BME280_humidity;BME280_pressure;Samples;Min_cycle;Max_cycle;Signal;HPM_P1;HPM_P2
2021/07/23 00:00:33;;;;;;;7.53;4.05;;;14.20;95.50;;;;;;5115390;27;20071;-68
2021/07/23 00:02:58;;;;;;;6.93;3.47;;;14.20;95.60;;;;;;5112172;28;20020;-68
2021/07/23 00:05:24;;;;;;;8.52;4.00;;;14.20;95.50;;;;;;5111468;28;20097;-68
2021/07/23 00:07:50;;;;;;;6.90;3.72;;;14.20;95.60;;;;;;5112046;28;20427;-68
2021/07/23 00:10:15;;;;;;;8.45;4.10;;;14.10;95.60;;;;;;5123147;27;20118;-68
2021/07/23 00:12:41;;;;;;;8.35;4.07;;;14.10;95.50;;;;;;5132132;27;20578;-67
2021/07/23 00:15:07;;;;;;;7.07;3.78;;;14.10;95.60;;;;;;5130166;27;20076;-68
2021/07/23 00:17:33;;;;;;;8.20;3.47;;;14.10;95.50;;;;;;5126668;27;20476;-67
2021/07/23 00:19:58;;;;;;;7.93;4.03;;;14.00;95.60;;;;;;5123039;27;20027;-68
2021/07/23 00:22:24;;;;;;;7.10;3.53;;;13.90;95.80;;;;;;5113183;27;20026;-69
2021/07/23 00:24:49;;;;;;;7.07;3.67;;;13.90;95.90;;;;;;5113892;27;20024;-68
2021/07/23 00:27:15;;;;;;;7.47;3.80;;;13.90;96.30;;;;;;5123709;27;20019;-68
2021/07/23 00:29:42;;;;;;;6.55;3.75;;;13.80;96.20;;;;;;5111795;28;20080;-69
2021/07/23 00:32:07;;;;;;;8.18;3.70;;;13.80;96.40;;;;;;5113032;27;20076;-68
2021/07/23 00:34:33;;;;;;;8.80;3.63;;;13.70;96.30;;;;;;5116040;27;20396;-68
2021/07/23 00:36:58;;;;;;;7.75;3.95;;;13.80;96.40;;;;;;5131655;27;20027;-69
2021/07/23 00:39:24;;;;;;;9.07;3.72;;;13.80;96.60;;;;;;5132373;27;20019;-67
2021/07/23 00:41:49;;;;;;;7.35;3.72;;;13.80;96.40;;;;;;5118362;27;20023;-68
2021/07/23 00:44:15;;;;;;;8.45;3.83;;;13.70;96.50;;;;;;5114354;28;20388;-66
2021/07/23 00:46:43;;;;;;;9.32;4.00;;;13.70;96.60;;;;;;5112582;28;20039;-68
2021/07/23 00:49:08;;;;;;;8.48;3.85;;;13.70;96.90;;;;;;5109663;28;20502;-68
2021/07/23 00:51:34;;;;;;;8.15;3.60;;;13.70;96.70;;;;;;5121435;27;20038;-68
2021/07/23 00:54:01;;;;;;;7.45;3.60;;;13.60;96.80;;;;;;5130999;27;20051;-68
2021/07/23 00:56:27;;;;;;;7.45;3.92;;;13.60;96.70;;;;;;5124705;27;20023;-67
2021/07/23 00:58:55;;;;;;;7.32;4.20;;;13.60;96.80;;;;;;5122246;28;20035;-68
2021/07/23 01:01:21;;;;;;;6.68;4.20;;;13.60;96.80;;;;;;5111250;28;20024;-68
2021/07/23 01:03:47;;;;;;;9.45;4.38;;;13.60;97.00;;;;;;5110898;28;20023;-68
2021/07/23 01:06:12;;;;;;;7.45;3.72;;;13.50;97.40;;;;;;5120476;27;20369;-68
2021/07/23 01:08:38;;;;;;;7.93;4.53;;;13.60;97.00;;;;;;5135958;27;20039;-69
2021/07/23 01:11:04;;;;;;;10.18;4.18;;;13.50;97.20;;;;;;5135031;27;20027;-68
2021/07/23 01:13:29;;;;;;;8.75;4.30;;;13.50;97.20;;;;;;5115650;28;20032;-68
2021/07/23 01:15:55;;;;;;;6.85;4.28;;;13.40;97.40;;;;;;5119226;27;20019;-67
2021/07/23 01:18:21;;;;;;;8.88;4.28;;;13.40;97.50;;;;;;5135506;27;20031;-69
2021/07/23 01:20:47;;;;;;;7.88;4.32;;;13.40;97.50;;;;;;5134307;27;20023;-68
2021/07/23 01:23:24;;;;;;;8.13;5.03;;;13.40;98.00;;;;;;5135411;27;20106;-68
2021/07/23 01:25:50;;;;;;;8.43;4.18;;;13.50;98.00;;;;;;5133112;27;20032;-68
2021/07/23 01:28:16;;;;;;;8.77;4.30;;;13.50;97.90;;;;;;5127606;27;20020;-68
2021/07/23 01:30:41;;;;;;;7.45;4.13;;;13.50;97.90;;;;;;5125924;27;20392;-68
2021/07/23 01:33:07;;;;;;;9.15;4.90;;;13.50;98.10;;;;;;5147863;27;20095;-68
2021/07/23 01:35:32;;;;;;;8.90;4.50;;;13.40;98.10;;;;;;5134431;27;20038;-69
2021/07/23 01:38:02;;;;;;;12.38;4.50;;;13.50;98.20;;;;;;5135375;27;20048;-68
2021/07/23 01:40:27;;;;;;;8.25;4.75;;;13.40;98.30;;;;;;5129471;27;20016;-68
2021/07/23 01:42:53;;;;;;;8.82;4.40;;;13.40;98.30;;;;;;5130373;27;20023;-68
2021/07/23 01:45:18;;;;;;;8.60;4.65;;;13.40;98.30;;;;;;5134834;27;20038;-68
2021/07/23 01:47:44;;;;;;;10.80;4.82;;;13.40;98.50;;;;;;5134842;27;20033;-68
2021/07/23 01:50:10;;;;;;;8.75;4.65;;;13.40;98.50;;;;;;5129940;27;20031;-68
2021/07/23 01:52:35;;;;;;;7.70;4.72;;;13.40;98.50;;;;;;5117100;27;20035;-68
2021/07/23 01:55:01;;;;;;;9.18;4.60;;;13.30;98.40;;;;;;5120433;27;20506;-69
2021/07/23 01:57:27;;;;;;;6.97;4.28;;;13.30;98.40;;;;;;5117219;27;20048;-69
2021/07/23 01:59:52;;;;;;;10.40;4.75;;;13.30;98.20;;;;;;5125897;27;20028;-68
2021/07/23 02:02:18;;;;;;;10.30;4.80;;;13.30;98.40;;;;;;5114242;28;20039;-68
2021/07/23 02:04:43;;;;;;;11.18;5.20;;;13.20;98.60;;;;;;5112964;28;20027;-68
2021/07/23 02:07:09;;;;;;;8.25;4.80;;;13.20;98.80;;;;;;5113509;28;20055;-68
2021/07/23 02:09:34;;;;;;;9.05;4.60;;;13.20;98.90;;;;;;5126490;27;20027;-68
2021/07/23 02:12:03;;;;;;;9.80;4.03;;;13.20;98.30;;;;;;5125948;27;20106;-68
2021/07/23 02:14:30;;;;;;;7.93;4.00;;;13.20;98.30;;;;;;5123256;27;20023;-67
2021/07/23 02:16:59;;;;;;;11.57;5.05;;;13.20;98.30;;;;;;5138186;27;20020;-68
2021/07/23 02:19:24;;;;;;;10.63;4.60;;;13.20;98.40;;;;;;5114402;28;20024;-68
2021/07/23 02:21:50;;;;;;;7.78;4.60;;;13.20;98.30;;;;;;5114408;28;20381;-68
2021/07/23 02:24:15;;;;;;;7.75;4.70;;;13.20;98.20;;;;;;5116362;27;20051;-67
2021/07/23 02:26:41;;;;;;;7.95;4.80;;;13.20;98.60;;;;;;5113913;28;20035;-68
2021/07/23 02:29:06;;;;;;;9.20;4.88;;;13.10;98.70;;;;;;5113985;28;20028;-68
2021/07/23 02:31:32;;;;;;;8.60;4.80;;;13.20;99.00;;;;;;5112391;28;20035;-68
2021/07/23 02:33:57;;;;;;;9.68;4.88;;;13.10;99.10;;;;;;5116368;27;20106;-68
2021/07/23 02:36:23;;;;;;;8.38;4.72;;;13.10;99.10;;;;;;5113857;27;20063;-67
2021/07/23 02:38:48;;;;;;;8.80;4.95;;;13.00;99.10;;;;;;5113554;28;20476;-67
2021/07/23 02:41:14;;;;;;;7.80;4.75;;;13.00;99.10;;;;;;5117008;27;20048;-68
2021/07/23 02:43:40;;;;;;;9.25;5.00;;;12.90;99.60;;;;;;5115665;27;20031;-67
2021/07/23 02:46:05;;;;;;;9.20;4.57;;;12.80;99.90;;;;;;5113097;27;20397;-68
2021/07/23 02:48:31;;;;;;;10.27;5.00;;;12.70;99.90;;;;;;5112760;28;20118;-68
2021/07/23 02:50:56;;;;;;;9.23;5.50;;;12.70;99.80;;;;;;5117695;27;20027;-68
2021/07/23 02:53:22;;;;;;;9.63;4.75;;;12.80;99.70;;;;;;5116272;27;20035;-68
2021/07/23 02:55:53;;;;;;;9.52;5.10;;;12.70;99.00;;;;;;5117558;27;20019;-67
2021/07/23 02:58:19;;;;;;;;;;;12.60;99.40;;;;;;5116323;27;20038;-68
2021/07/23 03:00:45;;;;;;;14.43;5.35;;;12.60;99.30;;;;;;5113259;27;19907;-68
2021/07/23 03:03:10;;;;;;;9.35;5.35;;;12.60;99.90;;;;;;5127087;27;20027;-68
2021/07/23 03:05:36;;;;;;;8.07;4.80;;;12.70;99.70;;;;;;5133855;27;20023;-68
2021/07/23 03:08:01;;;;;;;9.68;5.07;;;12.70;99.60;;;;;;5133388;27;20048;-69
2021/07/23 03:10:27;;;;;;;8.35;4.60;;;12.60;99.80;;;;;;5121172;27;20103;-68
2021/07/23 03:12:52;;;;;;;8.00;4.60;;;12.50;99.90;;;;;;5123958;27;20055;-68
2021/07/23 03:15:18;;;;;;;10.25;5.07;;;12.50;99.90;;;;;;5133674;27;20023;-67
2021/07/23 03:17:43;;;;;;;11.30;5.35;;;12.50;99.90;;;;;;5132981;27;20027;-67
2021/07/23 03:20:10;;;;;;;11.23;5.13;;;12.50;99.90;;;;;;5133133;27;20027;-68
2021/07/23 03:22:35;;;;;;;8.38;5.65;;;12.30;99.90;;;;;;5125367;27;20549;-68
2021/07/23 03:25:01;;;;;;;9.52;4.68;;;12.30;99.90;;;;;;5112339;28;20020;-67
2021/07/23 03:27:27;;;;;;;10.70;4.82;;;12.30;99.90;;;;;;5110664;27;20027;-67
2021/07/23 03:29:53;;;;;;;11.27;6.03;;;12.40;99.90;;;;;;5113011;28;20106;-68
2021/07/23 03:32:18;;;;;;;10.23;5.50;;;12.40;99.90;;;;;;5110683;27;20169;-68
2021/07/23 03:34:44;;;;;;;11.75;6.00;;;12.50;99.90;;;;;;5117658;27;20035;-68
2021/07/23 03:37:09;;;;;;;11.45;6.28;;;12.60;99.90;;;;;;5112672;28;20102;-68
2021/07/23 03:39:35;;;;;;;9.60;5.03;;;12.60;99.90;;;;;;5116743;27;20075;-68
2021/07/23 03:42:00;;;;;;;9.77;5.85;;;12.60;99.50;;;;;;5123010;27;20028;-68
2021/07/23 03:44:26;;;;;;;9.20;5.40;;;12.50;99.70;;;;;;5122433;27;20028;-67
2021/07/23 03:46:51;;;;;;;8.73;5.57;;;12.50;99.90;;;;;;5112186;28;20031;-68
2021/07/23 03:49:17;;;;;;;9.38;6.00;;;12.50;99.90;;;;;;5112485;28;20159;-67
2021/07/23 03:51:42;;;;;;;9.18;6.07;;;12.50;99.90;;;;;;5112555;28;20031;-67
2021/07/23 03:54:08;;;;;;;9.50;6.03;;;12.50;99.80;;;;;;5111813;28;20502;-68
2021/07/23 03:56:33;;;;;;;9.93;6.10;;;12.50;99.90;;;;;;5118141;27;20019;-67
2021/07/23 03:58:59;;;;;;;10.30;6.10;;;12.50;99.90;;;;;;5112386;27;20016;-68
2021/07/23 04:01:25;;;;;;;16.27;6.72;;;12.50;99.90;;;;;;5118949;27;20020;-68
2021/07/23 04:03:50;;;;;;;11.07;5.97;;;12.50;99.90;;;;;;5119188;27;20035;-68
2021/07/23 04:06:16;;;;;;;10.07;5.68;;;12.50;99.90;;;;;;5115259;27;20020;-68
2021/07/23 04:08:41;;;;;;;10.98;6.00;;;12.60;99.90;;;;;;5111260;28;20527;-68
2021/07/23 04:11:14;;;;;;;10.50;6.45;;;12.70;99.90;;;;;;5105274;27;20080;-68
2021/07/23 04:13:39;;;;;;;9.73;6.00;;;12.70;99.90;;;;;;5112841;27;20034;-68
2021/07/23 04:16:06;;;;;;;9.35;6.18;;;12.80;99.90;;;;;;5130591;27;20054;-69
2021/07/23 04:18:32;;;;;;;9.52;6.30;;;12.80;99.90;;;;;;5132948;27;20921;-69
2021/07/23 04:20:57;;;;;;;10.48;6.15;;;12.80;99.90;;;;;;5145835;27;20076;-69
2021/07/23 04:23:23;;;;;;;10.18;6.50;;;12.90;99.90;;;;;;5146934;27;20577;-69
2021/07/23 04:25:48;;;;;;;11.38;6.75;;;12.90;99.90;;;;;;5122834;27;20826;-69
2021/07/23 04:28:14;;;;;;;10.40;6.43;;;13.00;99.90;;;;;;5126295;27;20031;-70
2021/07/23 04:30:39;;;;;;;10.13;6.68;;;13.10;99.90;;;;;;5128662;27;20110;-70
2021/07/23 04:33:05;;;;;;;12.30;6.07;;;13.10;99.90;;;;;;5116183;27;20027;-71
2021/07/23 04:35:30;;;;;;;11.82;6.38;;;13.10;99.90;;;;;;5138052;27;20034;-70
2021/07/23 04:37:56;;;;;;;12.10;6.60;;;13.20;99.90;;;;;;5107599;27;20055;-71
2021/07/23 04:40:22;;;;;;;10.35;6.10;;;13.20;99.90;;;;;;5112808;27;20031;-71
2021/07/23 04:42:47;;;;;;;10.15;6.32;;;13.40;99.90;;;;;;5113979;27;20122;-71
2021/07/23 04:45:13;;;;;;;11.10;6.38;;;13.50;99.60;;;;;;5109941;27;20059;-71
2021/07/23 04:47:39;;;;;;;12.25;6.20;;;13.60;99.50;;;;;;5119513;27;20110;-70
2021/07/23 04:50:05;;;;;;;11.13;6.43;;;13.80;98.70;;;;;;5108088;28;20156;-71
2021/07/23 04:52:30;;;;;;;9.00;6.45;;;13.80;98.40;;;;;;5104890;28;20039;-66
2021/07/23 04:54:56;;;;;;;9.48;5.95;;;13.80;98.40;;;;;;5106557;27;20206;-69
2021/07/23 04:57:28;;;;;;;10.15;6.85;;;13.90;98.60;;;;;;5142210;27;20046;-70
2021/07/23 04:59:54;;;;;;;10.35;7.05;;;13.90;98.50;;;;;;5125307;27;20529;-70
2021/07/23 05:02:19;;;;;;;10.43;7.00;;;14.00;98.30;;;;;;5119438;28;20030;-70
2021/07/23 05:04:45;;;;;;;12.15;7.88;;;14.10;98.00;;;;;;5124822;28;20027;-70
2021/07/23 05:07:10;;;;;;;9.95;6.35;;;14.40;97.40;;;;;;5105041;28;20027;-70
2021/07/23 05:09:36;;;;;;;11.85;7.20;;;14.70;96.80;;;;;;5114511;28;20051;-73
2021/07/23 05:12:02;;;;;;;11.23;6.70;;;14.90;96.30;;;;;;5110053;28;20035;-68
2021/07/23 05:14:31;;;;;;;12.13;6.88;;;15.20;95.50;;;;;;5122027;27;20055;-69
2021/07/23 05:16:57;;;;;;;12.02;6.78;;;15.30;94.90;;;;;;5128056;27;20026;-69
2021/07/23 05:19:22;;;;;;;12.25;6.65;;;15.40;94.70;;;;;;5112591;28;20032;-73
2021/07/23 05:21:48;;;;;;;10.52;6.55;;;15.50;94.40;;;;;;5125059;27;20361;-70
2021/07/23 05:24:13;;;;;;;10.57;6.53;;;15.80;93.70;;;;;;5117855;27;20146;-68
2021/07/23 05:26:39;;;;;;;8.63;5.85;;;16.00;92.90;;;;;;5106489;28;20553;-70
2021/07/23 05:29:07;;;;;;;9.77;6.53;;;16.30;91.80;;;;;;5105050;28;20034;-72
2021/07/23 05:31:32;;;;;;;9.18;5.80;;;16.40;91.60;;;;;;5123800;27;20065;-71
2021/07/23 05:33:58;;;;;;;9.63;6.03;;;16.50;91.40;;;;;;5119968;27;20031;-71
2021/07/23 05:36:25;;;;;;;10.80;5.60;;;16.80;90.40;;;;;;5114953;28;20302;-70
2021/07/23 05:38:51;;;;;;;14.90;6.13;;;16.80;90.80;;;;;;5121880;27;20345;-69
2021/07/23 05:41:16;;;;;;;10.48;5.47;;;16.90;90.50;;;;;;5116372;28;20059;-68
2021/07/23 05:43:42;;;;;;;9.00;5.45;;;17.30;88.40;;;;;;5118982;28;20054;-71
2021/07/23 05:46:08;;;;;;;10.35;5.75;;;17.50;87.90;;;;;;5122196;28;20027;-69
2021/07/23 05:48:38;;;;;;;10.07;5.60;;;17.60;87.20;;;;;;5102750;28;20084;-66
2021/07/23 05:51:04;;;;;;;8.98;5.28;;;17.60;86.10;;;;;;5108475;27;20661;-69
2021/07/23 05:53:30;;;;;;;10.98;6.00;;;17.90;84.70;;;;;;5119458;27;20059;-70
2021/07/23 05:55:58;;;;;;;13.45;5.72;;;18.20;84.50;;;;;;5120732;27;20290;-71
2021/07/23 05:58:27;;;;;;;8.60;5.20;;;18.30;83.00;;;;;;5120891;27;20026;-68
2021/07/23 06:00:54;;;;;;;9.55;5.38;;;18.40;82.50;;;;;;5116176;27;20030;-68
2021/07/23 06:03:20;;;;;;;9.05;5.40;;;18.70;80.90;;;;;;5113268;28;20020;-66
2021/07/23 06:05:45;;;;;;;45.75;12.05;;;18.80;80.40;;;;;;5113548;28;20035;-70
2021/07/23 06:08:11;;;;;;;22.23;8.25;;;19.00;80.00;;;;;;5114398;28;20472;-68
2021/07/23 06:10:36;;;;;;;12.27;5.63;;;19.30;78.60;;;;;;5114439;28;20125;-68
2021/07/23 06:13:02;;;;;;;9.80;5.13;;;19.50;76.70;;;;;;5114210;28;20477;-69
2021/07/23 06:15:27;;;;;;;10.20;5.07;;;19.70;75.60;;;;;;5113599;28;20094;-69
2021/07/23 06:17:54;;;;;;;8.05;5.07;;;19.90;74.10;;;;;;5114334;28;20094;-69
2021/07/23 06:20:19;;;;;;;10.82;5.05;;;19.90;75.20;;;;;;5114331;28;20120;-69
2021/07/23 06:22:45;;;;;;;8.73;4.88;;;20.10;74.80;;;;;;5112554;28;20487;-69
2021/07/23 06:25:11;;;;;;;7.93;4.95;;;20.40;74.70;;;;;;5114032;28;20400;-69
2021/07/23 06:27:36;;;;;;;8.60;4.43;;;20.50;70.90;;;;;;5114006;28;20040;-68
2021/07/23 06:30:03;;;;;;;10.80;5.13;;;20.70;72.30;;;;;;5113602;28;20153;-69
2021/07/23 06:32:31;;;;;;;6.82;3.67;;;20.90;71.70;;;;;;5114016;28;20478;-69
2021/07/23 06:34:57;;;;;;;8.32;4.07;;;21.00;70.10;;;;;;5113779;28;20629;-69
2021/07/23 06:37:23;;;;;;;10.30;4.00;;;21.60;69.20;;;;;;5113491;28;20028;-68
2021/07/23 06:39:49;;;;;;;8.38;3.95;;;21.50;69.20;;;;;;5114104;28;20054;-69
2021/07/23 06:42:16;;;;;;;7.22;4.00;;;21.60;68.50;;;;;;5113941;28;20468;-69
2021/07/23 06:44:42;;;;;;;6.25;3.55;;;21.50;68.10;;;;;;5112951;28;20482;-69
2021/07/23 06:47:07;;;;;;;8.20;3.75;;;22.00;66.70;;;;;;5113791;28;20020;-70
2021/07/23 06:49:33;;;;;;;7.10;3.20;;;22.00;65.40;;;;;;5113660;28;20477;-69
2021/07/23 06:51:58;;;;;;;8.75;3.55;;;21.90;64.90;;;;;;5113265;28;20484;-68
2021/07/23 06:54:25;;;;;;;8.50;3.10;;;21.90;65.40;;;;;;5113348;28;20039;-70
2021/07/23 06:56:52;;;;;;;7.88;3.10;;;22.00;64.50;;;;;;5126064;27;20507;-69
2021/07/23 06:59:17;;;;;;;7.38;3.00;;;21.70;64.60;;;;;;5133492;27;20073;-70
2021/07/23 07:01:43;;;;;;;7.53;3.15;;;21.90;64.80;;;;;;5133586;27;20515;-69
2021/07/23 07:04:08;;;;;;;7.80;2.90;;;22.10;63.90;;;;;;5133356;27;20072;-69
2021/07/23 07:06:34;;;;;;;6.40;2.88;;;22.00;64.50;;;;;;5133221;27;20038;-68
2021/07/23 07:08:59;;;;;;;7.18;2.95;;;22.80;60.20;;;;;;5132438;27;20079;-69
2021/07/23 07:11:25;;;;;;;6.50;2.90;;;22.70;62.40;;;;;;5133467;27;20484;-68
2021/07/23 07:13:50;;;;;;;6.72;2.95;;;22.50;61.60;;;;;;5133430;27;20020;-70
2021/07/23 07:16:16;;;;;;;9.40;3.00;;;22.60;61.70;;;;;;5133594;27;20019;-68
2021/07/23 07:18:42;;;;;;;5.50;2.88;;;23.10;60.20;;;;;;5133730;27;20028;-69
2021/07/23 07:21:07;;;;;;;6.65;3.10;;;23.30;59.70;;;;;;5133310;27;20068;-68
2021/07/23 07:23:33;;;;;;;6.75;3.15;;;23.20;59.90;;;;;;5133651;27;20051;-69
2021/07/23 07:25:59;;;;;;;6.13;3.15;;;23.30;60.10;;;;;;5133128;27;20031;-69
2021/07/23 07:28:24;;;;;;;6.63;2.90;;;23.30;60.20;;;;;;5132934;27;20038;-69
2021/07/23 07:30:50;;;;;;;8.45;3.28;;;22.50;61.50;;;;;;5132274;27;20083;-69
2021/07/23 07:33:15;;;;;;;7.53;3.20;;;22.70;60.90;;;;;;5133393;27;20537;-69
2021/07/23 07:35:45;;;;;;;6.63;3.20;;;22.60;61.10;;;;;;5132683;27;20020;-69
2021/07/23 07:38:11;;;;;;;5.93;2.50;;;22.60;61.20;;;;;;5133281;27;20533;-69
2021/07/23 07:40:38;;;;;;;6.25;3.00;;;21.80;63.90;;;;;;5133124;27;20177;-69
2021/07/23 07:43:07;;;;;;;5.38;2.75;;;22.30;62.20;;;;;;5131513;27;20373;-68
2021/07/23 07:45:36;;;;;;;6.38;3.22;;;22.70;59.20;;;;;;5132965;27;20034;-70
2021/07/23 07:48:02;;;;;;;6.65;3.13;;;22.90;58.50;;;;;;5133033;27;20023;-70
2021/07/23 07:50:28;;;;;;;9.45;3.80;;;22.30;62.10;;;;;;5131297;27;20029;-70
2021/07/23 07:52:53;;;;;;;6.05;2.90;;;23.50;60.20;;;;;;5133199;27;20023;-70
2021/07/23 07:55:19;;;;;;;5.68;2.78;;;23.60;57.70;;;;;;5131468;27;20031;-69
2021/07/23 07:57:44;;;;;;;6.40;3.20;;;23.10;58.40;;;;;;5111872;28;20024;-69
2021/07/23 08:00:11;;;;;;;8.18;3.20;;;23.40;59.00;;;;;;5112466;28;20447;-68
2021/07/23 08:02:36;;;;;;;5.82;3.05;;;23.30;60.70;;;;;;5112679;28;20084;-69
2021/07/23 08:05:01;;;;;;;6.22;3.30;;;23.00;58.80;;;;;;5111593;28;20442;-70
2021/07/23 08:07:32;;;;;;;7.85;3.05;;;23.30;57.60;;;;;;5112169;28;20103;-69
2021/07/23 08:10:02;;;;;;;6.82;3.28;;;23.00;58.30;;;;;;5112034;28;20146;-69
2021/07/23 08:12:31;;;;;;;7.13;3.17;;;23.00;58.90;;;;;;5111475;28;20027;-69
2021/07/23 08:14:58;;;;;;;5.50;2.90;;;22.80;56.40;;;;;;5111510;28;20047;-69
2021/07/23 08:17:25;;;;;;;6.13;3.20;;;22.80;59.80;;;;;;5112046;28;20024;-69
2021/07/23 08:19:50;;;;;;;6.90;3.35;;;22.30;59.30;;;;;;5111405;28;20399;-69
2021/07/23 08:22:17;;;;;;;6.22;2.90;;;22.10;61.80;;;;;;5111963;28;20019;-70
2021/07/23 08:24:44;;;;;;;5.88;3.25;;;21.90;61.60;;;;;;5111769;28;20020;-69
2021/07/23 08:27:10;;;;;;;6.40;3.20;;;21.90;62.80;;;;;;5111338;28;20084;-69
2021/07/23 08:29:35;;;;;;;6.93;3.22;;;22.20;60.80;;;;;;5111753;28;20023;-70
2021/07/23 08:32:06;;;;;;;5.05;2.90;;;22.60;60.80;;;;;;5111904;28;20106;-69
2021/07/23 08:34:31;;;;;;;5.60;3.10;;;22.80;58.80;;;;;;5109830;28;20032;-69
2021/07/23 08:36:57;;;;;;;7.22;3.40;;;22.20;62.00;;;;;;5111834;28;20023;-68
2021/07/23 08:39:22;;;;;;;5.25;2.83;;;22.80;58.60;;;;;;5111753;28;20024;-69
2021/07/23 08:41:48;;;;;;;5.93;3.10;;;22.80;59.20;;;;;;5111337;28;20034;-69
2021/07/23 08:44:15;;;;;;;6.78;3.42;;;23.00;57.10;;;;;;5111570;28;20103;-66
2021/07/23 08:46:40;;;;;;;4.93;2.70;;;23.60;55.30;;;;;;5111340;28;20015;-69
2021/07/23 08:49:06;;;;;;;5.30;2.90;;;23.30;58.10;;;;;;5110868;28;20024;-70
2021/07/23 08:51:32;;;;;;;5.18;2.88;;;23.80;57.00;;;;;;5111719;28;20102;-69
2021/07/23 08:53:57;;;;;;;6.65;3.22;;;23.40;58.10;;;;;;5111473;28;20031;-70
2021/07/23 08:56:23;;;;;;;5.82;3.00;;;23.80;57.00;;;;;;5120702;27;20022;-70
2021/07/23 08:58:48;;;;;;;6.50;3.17;;;22.70;59.70;;;;;;5131957;27;20031;-69
2021/07/23 09:01:14;;;;;;;4.95;3.20;;;22.50;60.30;;;;;;5132054;27;20023;-69
2021/07/23 09:03:39;;;;;;;5.88;3.38;;;22.50;60.30;;;;;;5129958;27;20389;-69
2021/07/23 09:06:18;;;;;;;4.78;2.50;;;23.40;57.90;;;;;;5132163;28;20414;-70
2021/07/23 09:08:51;;;;;;;6.18;3.00;;;22.40;61.00;;;;;;5131560;28;20123;-70
2021/07/23 09:11:27;;;;;;;5.85;3.08;;;22.40;60.50;;;;;;5131324;27;20030;-69
2021/07/23 09:14:11;;;;;;;6.20;3.13;;;21.90;62.00;;;;;;5131953;27;20027;-68
2021/07/23 09:16:36;;;;;;;5.78;3.10;;;22.00;62.00;;;;;;5131548;28;20026;-69
2021/07/23 09:19:06;;;;;;;4.90;2.90;;;21.80;63.00;;;;;;5131397;28;20388;-69
2021/07/23 09:21:36;;;;;;;6.13;2.85;;;24.00;56.20;;;;;;5131767;28;20026;-70
2021/07/23 09:24:02;;;;;;;5.93;3.30;;;23.00;59.00;;;;;;5131626;28;20023;-70
2021/07/23 09:26:40;;;;;;;5.68;2.90;;;22.00;61.70;;;;;;5133248;27;20081;-68
2021/07/23 09:29:06;;;;;;;5.10;2.70;;;21.90;62.20;;;;;;5134544;27;20028;-69
2021/07/23 09:31:33;;;;;;;6.03;3.28;;;21.80;63.00;;;;;;5134587;27;20023;-69
2021/07/23 09:33:59;;;;;;;5.68;2.88;;;21.90;62.40;;;;;;5135186;27;20472;-68
2021/07/23 09:36:25;;;;;;;5.45;2.90;;;22.70;57.70;;;;;;5135379;27;20027;-68
2021/07/23 09:38:52;;;;;;;6.05;2.80;;;22.70;59.60;;;;;;5135850;27;20022;-69
2021/07/23 09:41:21;;;;;;;6.00;3.08;;;22.90;59.80;;;;;;5133937;27;20016;-69
2021/07/23 09:43:55;;;;;;;6.13;2.78;;;22.90;58.80;;;;;;5135699;27;20106;-69
2021/07/23 09:46:24;;;;;;;5.97;3.15;;;22.70;59.40;;;;;;5133947;27;20019;-69
2021/07/23 09:48:50;;;;;;;7.00;3.25;;;23.30;57.30;;;;;;5134731;27;20134;-68
2021/07/23 09:51:17;;;;;;;5.88;3.10;;;24.20;51.50;;;;;;5135513;27;20072;-69
2021/07/23 09:53:43;;;;;;;6.10;3.00;;;23.20;57.40;;;;;;5135396;27;20034;-69
2021/07/23 09:56:10;;;;;;;5.20;2.90;;;22.60;59.70;;;;;;5126576;27;20497;-69
2021/07/23 09:58:44;;;;;;;5.55;2.90;;;22.70;59.80;;;;;;5113378;28;20023;-68
2021/07/23 10:01:22;;;;;;;6.57;3.13;;;22.40;60.50;;;;;;5113350;28;20027;-69
2021/07/23 10:03:54;;;;;;;6.07;2.95;;;22.30;60.70;;;;;;5114517;28;20515;-69
2021/07/23 10:06:27;;;;;;;6.80;2.95;;;23.90;52.40;;;;;;5115005;28;20436;-69
2021/07/23 10:08:55;;;;;;;5.80;3.10;;;25.20;48.50;;;;;;5114596;28;20081;-68
2021/07/23 10:11:21;;;;;;;8.65;3.15;;;24.80;53.50;;;;;;5113631;28;20092;-69
2021/07/23 10:13:49;;;;;;;6.10;3.28;;;24.60;53.50;;;;;;5113245;28;20027;-70
2021/07/23 10:16:16;;;;;;;5.65;2.97;;;23.80;53.70;;;;;;5114176;28;20030;-69
2021/07/23 10:18:42;;;;;;;6.20;3.22;;;23.10;57.90;;;;;;5112568;28;20023;-69
2021/07/23 10:21:09;;;;;;;5.22;2.88;;;23.20;57.20;;;;;;5114367;28;20153;-70
2021/07/23 10:23:36;;;;;;;6.65;3.05;;;22.30;60.30;;;;;;5114330;28;20540;-69
2021/07/23 10:26:02;;;;;;;7.80;3.03;;;22.50;59.50;;;;;;5113418;28;20029;-70
2021/07/23 10:28:54;;;;;;;5.85;3.05;;;23.70;54.10;;;;;;5112820;28;20023;-69
2021/07/23 10:31:27;;;;;;;5.75;3.00;;;24.10;54.50;;;;;;5109385;28;20024;-69
2021/07/23 10:33:54;;;;;;;6.47;2.97;;;23.20;57.70;;;;;;5113550;28;20023;-68
2021/07/23 10:36:25;;;;;;;5.97;3.35;;;22.90;58.70;;;;;;5113408;28;20038;-69
2021/07/23 10:39:06;;;;;;;5.00;2.75;;;23.20;56.20;;;;;;5114081;28;20016;-69
2021/07/23 10:41:32;;;;;;;;;;;22.50;59.70;;;;;;5114078;28;20520;-69
2021/07/23 10:43:57;;;;;;;6.18;3.20;;;22.50;59.40;;;;;;5114064;28;19914;-68
2021/07/23 10:46:44;;;;;;;5.90;3.05;;;23.80;51.00;;;;;;5113548;28;20023;-68
2021/07/23 10:49:10;;;;;;;6.25;3.28;;;24.30;53.00;;;;;;5111906;28;20045;-68
2021/07/23 10:51:49;;;;;;;5.20;2.80;;;23.60;58.10;;;;;;5113492;28;20532;-67
2021/07/23 10:54:22;;;;;;;5.65;2.80;;;23.10;57.90;;;;;;5113214;28;20024;-67
2021/07/23 10:57:09;;;;;;;6.20;3.00;;;22.30;60.00;;;;;;5126942;27;20384;-68
2021/07/23 10:59:43;;;;;;;6.25;2.88;;;21.90;62.00;;;;;;5123641;27;20038;-69
2021/07/23 11:02:15;;;;;;;5.68;3.00;;;21.60;63.00;;;;;;5133648;27;20023;-69
2021/07/23 11:04:41;;;;;;;;;;;21.80;62.80;;;;;;5134280;27;20030;-69
2021/07/23 11:07:08;;;;;;;7.97;3.03;;;22.30;61.70;;;;;;5134009;27;20465;-69
2021/07/23 11:09:35;;;;;;;6.15;2.90;;;21.90;62.30;;;;;;5133383;27;20278;-70
2021/07/23 11:12:19;;;;;;;4.82;2.83;;;22.00;61.40;;;;;;5133515;27;20110;-70
2021/07/23 11:15:01;;;;;;;5.43;2.83;;;22.50;59.70;;;;;;5133732;27;20019;-69
2021/07/23 11:17:28;;;;;;;4.70;2.55;;;21.70;62.30;;;;;;5133304;27;20724;-69
2021/07/23 11:20:04;;;;;;;6.03;2.80;;;21.50;63.10;;;;;;5133565;27;20507;-69
2021/07/23 11:22:35;;;;;;;5.13;2.63;;;22.20;61.10;;;;;;5133617;27;20480;-69
2021/07/23 11:25:05;;;;;;;5.97;2.80;;;21.70;63.20;;;;;;5133018;27;20152;-69
2021/07/23 11:27:38;;;;;;;5.80;2.83;;;21.50;63.40;;;;;;5133647;27;20022;-69
2021/07/23 11:30:20;;;;;;;5.95;3.22;;;21.90;60.50;;;;;;5133319;27;20050;-69
2021/07/23 11:32:56;;;;;;;5.85;2.70;;;22.50;57.10;;;;;;5133022;27;20589;-70
2021/07/23 11:35:23;;;;;;;7.00;2.67;;;22.40;58.70;;;;;;5133364;27;20500;-69
2021/07/23 11:37:49;;;;;;;6.03;2.95;;;22.10;60.70;;;;;;5133372;27;20015;-69
2021/07/23 11:40:18;;;;;;;9.13;2.70;;;23.20;52.10;;;;;;5119934;27;20025;-68
2021/07/23 11:42:46;;;;;;;6.05;2.63;;;22.70;59.30;;;;;;5116624;27;20024;-67
2021/07/23 11:45:13;;;;;;;6.43;2.88;;;22.50;58.60;;;;;;5119057;27;20026;-67
2021/07/23 11:47:43;;;;;;;5.38;2.88;;;22.00;61.60;;;;;;5127872;27;20023;-67
2021/07/23 11:50:13;;;;;;;4.22;2.30;;;22.00;61.80;;;;;;5118708;27;20437;-68
2021/07/23 11:52:39;;;;;;;5.35;2.60;;;22.40;60.30;;;;;;5122658;27;20494;-70
2021/07/23 11:55:09;;;;;;;7.30;2.83;;;22.40;60.20;;;;;;5116384;27;20019;-68
2021/07/23 11:57:40;;;;;;;6.07;2.83;;;22.30;58.40;;;;;;5153197;27;20027;-68
2021/07/23 12:00:13;;;;;;;8.80;3.05;;;22.40;59.50;;;;;;5140194;27;20019;-69
2021/07/23 12:02:38;;;;;;;4.80;2.50;;;23.10;53.80;;;;;;5130585;27;20023;-70
2021/07/23 12:05:08;;;;;;;6.40;2.75;;;24.40;51.00;;;;;;5132403;27;20031;-68
2021/07/23 12:07:35;;;;;;;6.55;2.90;;;23.80;50.80;;;;;;5118404;27;20603;-70
2021/07/23 12:10:03;;;;;;;5.90;2.80;;;23.60;50.70;;;;;;5111238;27;20032;-68
2021/07/23 12:12:29;;;;;;;5.03;2.58;;;23.70;51.70;;;;;;5121583;27;20370;-70
2021/07/23 12:15:05;;;;;;;5.70;2.53;;;23.80;52.10;;;;;;5110462;28;20034;-70
2021/07/23 12:17:32;;;;;;;4.60;2.47;;;23.80;53.60;;;;;;5129368;27;20019;-70
2021/07/23 12:19:57;;;;;;;5.22;2.60;;;23.10;56.80;;;;;;5132620;27;20472;-69
2021/07/23 12:22:23;;;;;;;5.70;2.60;;;22.30;59.90;;;;;;5132252;27;20031;-69
2021/07/23 12:24:49;;;;;;;6.35;3.00;;;21.90;61.60;;;;;;5131800;27;20029;-67
2021/07/23 12:27:22;;;;;;;5.35;2.75;;;21.60;62.70;;;;;;5127616;27;20026;-68
2021/07/23 12:29:47;;;;;;;5.60;2.65;;;21.50;63.60;;;;;;5121260;27;20120;-69
2021/07/23 12:32:14;;;;;;;5.35;2.83;;;21.60;63.40;;;;;;5111439;28;20493;-68
2021/07/23 12:34:41;;;;;;;6.55;2.78;;;21.40;64.00;;;;;;5129127;27;20015;-69
2021/07/23 12:37:17;;;;;;;4.93;2.35;;;21.50;63.70;;;;;;5132342;27;20555;-68
2021/07/23 12:39:50;;;;;;;4.78;2.50;;;21.60;63.10;;;;;;5130396;27;20054;-68
2021/07/23 12:42:20;;;;;;;5.45;2.65;;;21.50;62.70;;;;;;5114925;27;20024;-71
2021/07/23 12:44:46;;;;;;;5.43;2.47;;;21.50;63.50;;;;;;5136514;27;20027;-69